Saturday, August 18, 2018, 3:19 AM EDT
Back to Local

KSWF, Newburgh / Stewart

Location: New Windsor, NY, United States Lat: 41.5
Local Time: 3:19 AM EDT ( 7:19 GMT) Lon: -74.1
Time Zone: US/Eastern Elev: 492 ft

Show me the last for .
Show Decoded

2018-08-18 02:45 METAR KSWF 180645Z 26006KT 10SM BKN120 22/22 A2990 =
2018-08-18 01:45 METAR KSWF 180545Z 00000KT 10SM BKN070 22/22 A2992 =
2018-08-18 00:45 METAR KSWF 180445Z 00000KT 10SM OVC050 23/23 A2994 =
2018-08-17 23:45 METAR KSWF 180345Z 00000KT 10SM SCT010 BKN060 23/22 A2994 =
2018-08-17 22:45 METAR KSWF 180245Z 24005KT 10SM -RA SCT030 BKN060 23/23 A2996 =
2018-08-17 22:10 METAR KSWF 180210Z 27005KT 10SM -RA SCT020 BKN040 23/23 A2997 RMK TSE10 =
2018-08-17 21:45 METAR KSWF 180145Z 22012G28KT 3SM +TSRA SCT008 BKN020 OVC030 23/23 A2997 RMK TS
                 OVH MOV E FREQ LTG ICCCCG =
2018-08-17 20:45 METAR KSWF 180045Z 23008KT 10SM VCTS SCT040 BKN065 24/22 A2993 RMK TS SE MOV E
                 FREQ LTG ICCCCG =
2018-08-17 20:00 METAR KSWF 180000Z 23010KT 7SM -TSRA BKN015 BKN060 25/24 A2992 RMK TSB00 TS SW
                 MOV E OCNL LTG ICCG =
2018-08-17 19:45 METAR KSWF 172345Z 23010KT 7SM -RA BKN015 BKN060 26/24 A2993 =
2018-08-17 18:45 METAR KSWF 172245Z VRB05KT 10SM SCT050 BKN100 28/25 A2992 =
2018-08-17 17:45 METAR KSWF 172145Z 30006KT 10SM SCT050 BKN100 26/23 A2994 RMK TSE40 MOVD NE =
2018-08-17 17:18 METAR KSWF 172118Z 220005G16KT 10SM TSRA BKN040 BKN080 30/24 A2994 RMK TSB18 TS
                 SW MOV E OCNL LTGIC =
2018-08-17 16:45 METAR KSWF 172045Z 21006KT 10SM FEW040 SCT070 31/24 A2995 =
2018-08-17 15:45 METAR KSWF 171945Z 21008KT 10SM SCT042 BKN070 30/23 A2997 =
2018-08-17 14:45 METAR KSWF 171845Z 24007KT 10SM BKN060 30/24 A2999 =
2018-08-17 13:45 METAR KSWF 171745Z VRB05KT 10SM BKN060 30/24 A3002 =
2018-08-17 12:45 METAR KSWF 171645Z VRB05KT 10SM BKN060 27/24 A3005 RMK HAZY =
2018-08-17 11:45 METAR KSWF 171545Z 29005KT 10SM BKN060 27/24 A3008 RMK HAZY =
2018-08-17 10:45 METAR KSWF 171445Z 25004KT 4SM BR BKN120 27/24 A3009 RMK HAZY =
2018-08-17 09:45 METAR KSWF 171345Z 28006KT 10SM BKN120 26/23 A3010 RMK HAZY =
2018-08-17 08:45 METAR KSWF 171245Z 28006KT 10SM BKN120 25/23 A3010 RMK HAZY =
2018-08-17 07:45 METAR KSWF 171145Z 00000KT 10SM BKN100 24/22 A3009 RMK HAZY =
2018-08-17 06:45 METAR KSWF 171045Z 00000KT 10SM BKN100 23/22 A3009 RMK HAZY =
2018-08-17 05:45 METAR KSWF 170945Z 00000KT 10SM SCT110 22/21 A3009 =
2018-08-17 04:45 METAR KSWF 170845Z 00000KT 10SM SKC 22/22 A3009 =
2018-08-17 03:45 METAR KSWF 170745Z 00000KT 10SM SKC 23/22 A3009 =

Support USWX by starting your Amazon purchase here.